Time;durP1;ratioP1;P1;durP2;ratioP2;P2;SDS_P1;SDS_P2;PMS_P1;PMS_P2;Temp;Humidity;BMP_temperature;BMP_pressure;BME280_temperature;BME280_humidity;BME280_pressure;Samples;Min_cycle;Max_cycle;Signal;HPM_P1;HPM_P2
2022/07/31 00:01:57;;;;;;;;;;;20.90;99.90;;;;;;8430904;28;19927;-69
2022/07/31 00:05:59;;;;;;;;;;;20.90;99.90;;;;;;8430605;28;19920;-69
2022/07/31 00:10:00;;;;;;;;;;;20.90;99.90;;;;;;8431582;28;19923;-69
2022/07/31 00:14:02;;;;;;;;;;;20.80;99.90;;;;;;8430366;28;19927;-69
2022/07/31 00:18:04;;;;;;;;;;;20.80;99.90;;;;;;8428199;28;19930;-69
2022/07/31 00:22:06;;;;;;;;;;;20.80;99.90;;;;;;8431255;28;19931;-69
2022/07/31 00:26:07;;;;;;;;;;;20.80;99.90;;;;;;8429583;28;20209;-69
2022/07/31 00:30:11;;;;;;;;;;;20.70;99.90;;;;;;8424837;28;19927;-69
2022/07/31 00:34:13;;;;;;;;;;;20.70;99.90;;;;;;8429348;28;20287;-69
2022/07/31 00:38:15;;;;;;;;;;;20.70;99.90;;;;;;8415995;28;20387;-69
2022/07/31 00:42:32;;;;;;;;;;;20.70;99.90;;;;;;8429970;28;20274;-69
2022/07/31 00:46:34;;;;;;;;;;;20.70;99.90;;;;;;8428872;28;19928;-69
2022/07/31 00:50:36;;;;;;;;;;;20.70;99.90;;;;;;8429567;28;19931;-69
2022/07/31 00:54:38;;;;;;;;;;;20.60;99.90;;;;;;8428989;28;19920;-69
2022/07/31 00:58:40;;;;;;;;;;;20.60;99.90;;;;;;8429723;28;19920;-69
2022/07/31 01:02:42;;;;;;;;;;;20.60;99.90;;;;;;8430192;28;19920;-69
2022/07/31 01:06:46;;;;;;;;;;;20.50;99.90;;;;;;8425619;28;19984;-69
2022/07/31 01:10:52;;;;;;;;;;;20.50;99.90;;;;;;8429256;28;20371;-69
2022/07/31 01:14:56;;;;;;;;;;;20.40;99.90;;;;;;8428490;28;20298;-69
2022/07/31 01:18:58;;;;;;;;;;;20.40;99.90;;;;;;8422630;28;19920;-69
2022/07/31 01:23:15;;;;;;;;;;;20.30;99.90;;;;;;8434804;28;19919;-69
2022/07/31 01:27:30;;;;;;;;;;;20.30;99.90;;;;;;8423469;28;19927;-69
2022/07/31 01:31:36;;;;;;;;;;;20.30;99.90;;;;;;8423902;28;19931;-69
2022/07/31 01:35:42;;;;;;;;;;;20.20;99.90;;;;;;8419812;28;20292;-69
2022/07/31 01:39:45;;;;;;;;;;;20.20;99.90;;;;;;8412308;28;19973;-69
2022/07/31 01:43:47;;;;;;;;;;;20.20;99.90;;;;;;8426482;28;19927;-69
2022/07/31 01:47:50;;;;;;;;;;;20.20;99.90;;;;;;8427096;28;19927;-69
2022/07/31 01:51:53;;;;;;;;;;;20.10;99.90;;;;;;8427237;28;19928;-69
2022/07/31 02:05:56;;;;;;;;;;;20.00;99.90;;;;;;8413433;28;19965;-69
2022/07/31 02:20:06;;;;;;;;;;;19.90;99.90;;;;;;8419526;28;20339;-69
2022/07/31 02:24:08;;;;;;;;;;;19.90;99.90;;;;;;8426542;28;19928;-69
2022/07/31 02:28:12;;;;;;;;;;;19.90;99.90;;;;;;8425740;28;20298;-69
2022/07/31 02:32:13;;;;;;;;;;;19.80;99.90;;;;;;8427572;28;19927;-69
2022/07/31 02:36:17;;;;;;;;;;;19.80;99.90;;;;;;8417441;28;19926;-69
2022/07/31 02:40:18;;;;;;;;;;;19.80;99.90;;;;;;8423767;28;20340;-69
2022/07/31 02:44:20;;;;;;;;;;;19.80;99.90;;;;;;8426077;28;19930;-69
2022/07/31 02:48:28;;;;;;;;;;;19.80;99.90;;;;;;8426710;28;20243;-69
2022/07/31 02:52:29;;;;;;;;;;;19.80;99.90;;;;;;8429649;28;19920;-69
2022/07/31 02:56:32;;;;;;;;;;;19.80;99.90;;;;;;8431310;28;19927;-69
2022/07/31 03:10:41;;;;;;;;;;;19.70;99.90;;;;;;8433314;28;20009;-69
2022/07/31 03:14:43;;;;;;;;;;;19.60;99.90;;;;;;8433028;28;19927;-69
2022/07/31 03:18:44;;;;;;;;;;;19.60;99.90;;;;;;8432549;28;19920;-69
2022/07/31 03:22:46;;;;;;;;;;;19.60;99.90;;;;;;8433330;28;19930;-69
2022/07/31 03:26:48;;;;;;;;;;;19.60;99.90;;;;;;8432154;28;20298;-69
2022/07/31 03:30:50;;;;;;;;;;;19.60;99.90;;;;;;8432187;28;19920;-69
2022/07/31 03:34:52;;;;;;;;;;;19.60;99.90;;;;;;8430225;28;19923;-69
2022/07/31 03:38:53;;;;;;;;;;;19.60;99.90;;;;;;8413329;28;20290;-69
2022/07/31 03:42:55;;;;;;;;;;;19.60;99.90;;;;;;8430700;28;19920;-69
2022/07/31 03:46:57;;;;;;;;;;;19.50;99.90;;;;;;8430320;28;19927;-69
2022/07/31 03:50:59;;;;;;;;;;;19.50;99.90;;;;;;8431072;28;20254;-69
2022/07/31 03:55:01;;;;;;;;;;;19.50;99.90;;;;;;8429086;28;20279;-69
2022/07/31 03:59:02;;;;;;;;;;;19.50;99.90;;;;;;8432391;28;19957;-69
2022/07/31 04:03:06;;;;;;;;;;;19.50;99.90;;;;;;8429371;28;19927;-69
2022/07/31 04:07:07;;;;;;;;;;;19.50;99.90;;;;;;8429161;28;19920;-69
2022/07/31 04:11:09;;;;;;;;;;;19.50;99.90;;;;;;8431703;28;19947;-69
2022/07/31 04:15:11;;;;;;;;;;;19.40;99.90;;;;;;8429954;28;19970;-69
2022/07/31 04:19:12;;;;;;;;;;;19.40;99.90;;;;;;8432054;28;19927;-69
2022/07/31 04:23:15;;;;;;;;;;;19.40;99.90;;;;;;8429153;28;19971;-69
2022/07/31 04:27:17;;;;;;;;;;;19.40;99.90;;;;;;8430472;28;19943;-68
2022/07/31 04:31:19;;;;;;;;;;;19.50;99.90;;;;;;8431321;28;19950;-69
2022/07/31 04:35:21;;;;;;;;;;;19.50;99.90;;;;;;8426916;28;19920;-69
2022/07/31 04:44:25;;;;;;;;;;;19.50;99.90;;;;;;8429414;28;20316;-69
2022/07/31 04:48:26;;;;;;;;;;;19.50;99.90;;;;;;8429788;28;19931;-69
2022/07/31 04:52:28;;;;;;;;;;;19.60;99.90;;;;;;8429469;28;19927;-69
2022/07/31 04:56:34;;;;;;;;;;;19.60;99.90;;;;;;8429055;28;20003;-69
2022/07/31 05:00:36;;;;;;;;;;;19.70;99.90;;;;;;8429783;28;19973;-69
2022/07/31 05:04:37;;;;;;;;;;;19.70;99.90;;;;;;8427706;28;19926;-69
2022/07/31 05:09:11;;;;;;;;;;;19.70;99.90;;;;;;8426558;28;20294;-69
2022/07/31 05:18:22;;;;;;;;;;;19.70;99.90;;;;;;8428547;28;19963;-69
2022/07/31 05:22:24;;;;;;;;;;;19.70;99.90;;;;;;8428871;28;19924;-69
2022/07/31 05:26:26;;;;;;;;;;;19.70;99.90;;;;;;8428491;28;20290;-69
2022/07/31 05:30:28;;;;;;;;;;;19.70;99.90;;;;;;8426307;28;19954;-69
2022/07/31 05:34:31;;;;;;;;;;;19.70;99.90;;;;;;8427234;28;20355;-69
2022/07/31 05:38:32;;;;;;;;;;;19.60;99.90;;;;;;8417433;28;19927;-69
2022/07/31 05:42:34;;;;;;;;;;;19.60;99.90;;;;;;8418568;28;19920;-69
2022/07/31 05:46:36;;;;;;;;;;;19.60;99.90;;;;;;8429512;28;19931;-69
2022/07/31 06:00:47;;;;;;;;;;;19.70;99.90;;;;;;8385137;28;20232;-69
2022/07/31 06:04:49;;;;;;;;;;;19.70;99.90;;;;;;8385729;28;20328;-69
2022/07/31 06:08:50;;;;;;;;;;;19.70;99.90;;;;;;8386180;28;19924;-69
2022/07/31 06:12:53;;;;;;;;;;;19.70;99.90;;;;;;8384492;28;19924;-69
2022/07/31 06:16:54;;;;;;;;;;;19.70;99.90;;;;;;8388215;28;19999;-69
2022/07/31 06:20:56;;;;;;;;;;;19.60;99.90;;;;;;8385813;28;19929;-69
2022/07/31 06:24:58;;;;;;;;;;;19.70;99.90;;;;;;8386300;28;20264;-69
2022/07/31 06:45:07;;;;;;;;;;;19.60;99.90;;;;;;8385576;28;19945;-69
2022/07/31 06:49:09;;;;;;;;;;;19.70;99.90;;;;;;8386378;28;19925;-69
2022/07/31 06:53:10;;;;;;;;;;;19.70;99.90;;;;;;8384747;28;20249;-69
2022/07/31 07:02:15;;;;;;;;;;;19.80;99.90;;;;;;8383533;28;19927;-69
2022/07/31 07:06:17;;;;;;;;;;;19.70;99.90;;;;;;8385981;28;19932;-69
2022/07/31 07:10:18;;;;;;;;;;;19.80;99.90;;;;;;8386048;28;19928;-69
2022/07/31 07:14:20;;;;;;;;;;;19.90;99.90;;;;;;8385014;28;19928;-69
2022/07/31 07:18:22;;;;;;;;;;;19.90;99.90;;;;;;8385530;28;19931;-69
2022/07/31 07:22:23;;;;;;;;;;;19.90;99.90;;;;;;8386203;28;19936;-69
2022/07/31 07:26:30;;;;;;;;;;;19.90;99.90;;;;;;8384137;28;19924;-69
2022/07/31 07:30:32;;;;;;;;;;;19.90;99.90;;;;;;8383820;28;19936;-69
2022/07/31 07:34:33;;;;;;;;;;;19.90;99.90;;;;;;8384662;28;19933;-68
2022/07/31 07:38:35;;;;;;;;;;;20.00;99.90;;;;;;8386303;28;20552;-69
2022/07/31 07:42:37;;;;;;;;;;;20.00;99.90;;;;;;8390113;28;19933;-69
2022/07/31 07:46:38;;;;;;;;;;;20.00;99.90;;;;;;8393626;28;19924;-69
2022/07/31 07:50:40;;;;;;;;;;;20.00;99.90;;;;;;8422953;27;19928;-68
2022/07/31 07:54:42;;;;;;;;;;;20.10;99.90;;;;;;8389930;28;19931;-69
2022/07/31 07:58:43;;;;;;;;;;;20.10;99.90;;;;;;8390949;28;20383;-68
2022/07/31 08:02:46;;;;;;;;;;;20.20;99.90;;;;;;8403928;28;19932;-69
2022/07/31 08:12:11;;;;;;;;;;;20.20;99.90;;;;;;8388222;28;19923;-69
2022/07/31 08:16:13;;;;;;;;;;;20.20;99.90;;;;;;8390990;28;19936;-69
2022/07/31 08:20:14;;;;;;;;;;;20.20;99.90;;;;;;8391027;28;19931;-69
2022/07/31 08:24:16;;;;;;;;;;;20.30;99.90;;;;;;8388797;28;20291;-68
2022/07/31 08:28:18;;;;;;;;;;;20.30;99.90;;;;;;8392413;28;20303;-69
2022/07/31 08:32:24;;;;;;;;;;;20.20;99.90;;;;;;8388176;28;19928;-69
2022/07/31 08:36:26;;;;;;;;;;;20.20;99.90;;;;;;8389159;28;20379;-69
2022/07/31 08:40:29;;;;;;;;;;;20.20;99.90;;;;;;8389781;28;20398;-69
2022/07/31 08:44:31;;;;;;;;;;;20.20;99.90;;;;;;8420666;27;19925;-69
2022/07/31 08:48:36;;;;;;;;;;;20.20;99.90;;;;;;8387305;28;20280;-69
2022/07/31 08:52:38;;;;;;;;;;;20.20;99.90;;;;;;8390986;28;19939;-69
2022/07/31 08:56:40;;;;;;;;;;;20.20;99.90;;;;;;8390180;28;19948;-69
2022/07/31 09:05:45;;;;;;;;;;;20.30;99.90;;;;;;8386060;28;19974;-69
2022/07/31 09:10:21;;;;;;;;;;;20.40;99.90;;;;;;8386544;28;20214;-69
2022/07/31 09:14:24;;;;;;;;;;;20.40;99.90;;;;;;8389651;28;19978;-69
2022/07/31 09:18:25;;;;;;;;;;;20.50;99.90;;;;;;8389749;28;20481;-69
2022/07/31 09:27:30;;;;;;;;;;;20.50;99.90;;;;;;8388475;28;20061;-68
2022/07/31 09:31:32;;;;;;;;;;;20.50;99.90;;;;;;8383512;28;19932;-69
2022/07/31 09:35:38;;;;;;;;;;;20.50;99.90;;;;;;8384629;28;19951;-69
2022/07/31 09:39:40;;;;;;;;;;;20.50;99.90;;;;;;8389667;28;19932;-69
2022/07/31 09:43:53;;;;;;;;;;;20.50;99.90;;;;;;8385549;28;19932;-69
2022/07/31 09:48:11;;;;;;;;;;;20.40;99.90;;;;;;8386568;28;19924;-69
2022/07/31 09:52:18;;;;;;;;;;;20.40;99.90;;;;;;8386153;28;19940;-69
2022/07/31 09:56:29;;;;;;;;;;;20.40;99.90;;;;;;8387432;28;20276;-69
2022/07/31 10:00:31;;;;;;;;;;;20.50;99.90;;;;;;8385389;28;19963;-69
2022/07/31 10:04:36;;;;;;;;;;;20.50;99.90;;;;;;8418519;27;20410;-69
2022/07/31 10:08:38;;;;;;;;;;;20.60;99.90;;;;;;8386016;28;19952;-69
2022/07/31 10:12:41;;;;;;;;;;;20.70;99.90;;;;;;8386223;28;19928;-69
2022/07/31 10:16:43;;;;;;;;;;;20.70;99.90;;;;;;8400708;28;19924;-69
2022/07/31 10:20:51;;;;;;;;;;;20.70;99.90;;;;;;8386503;28;19928;-69
2022/07/31 10:24:53;;;;;;;;;;;20.70;99.90;;;;;;8388073;28;19982;-69
2022/07/31 10:28:56;;;;;;;;;;;20.70;99.90;;;;;;8385692;28;20430;-69
2022/07/31 10:32:58;;;;;;;;;;;20.80;99.90;;;;;;8384991;28;19928;-69
2022/07/31 10:52:09;;;;;;;;;;;20.70;99.90;;;;;;8384869;28;19937;-69
2022/07/31 10:56:12;;;;;;;;;;;20.60;99.90;;;;;;8386702;28;20378;-69
2022/07/31 11:00:18;;;;;;;;;;;20.60;99.90;;;;;;8384240;28;20004;-69
2022/07/31 11:04:26;;;;;;;;;;;20.60;99.90;;;;;;8384835;28;19940;-69
2022/07/31 11:08:39;;;;;;;;;;;20.60;99.90;;;;;;8385096;28;19936;-69
2022/07/31 11:12:41;;;;;;;;;;;20.60;99.90;;;;;;8389634;28;20285;-69
2022/07/31 11:16:52;;;;;;;;;;;20.70;99.90;;;;;;8393679;28;19924;-70
2022/07/31 11:20:57;;;;;;;;;;;20.70;99.90;;;;;;8393804;28;19932;-69
2022/07/31 11:24:59;;;;;;;;;;;20.80;99.90;;;;;;8391315;28;24467;-69
2022/07/31 11:29:01;;;;;;;;;;;20.80;99.90;;;;;;8392155;28;19934;-69
2022/07/31 11:33:39;;;;;;;;;;;20.80;99.90;;;;;;8390901;28;19967;-69
2022/07/31 11:37:43;;;;;;;;;;;20.90;99.90;;;;;;8393272;28;19939;-69
2022/07/31 11:42:01;;;;;;;;;;;21.00;99.90;;;;;;8390294;28;19978;-69
2022/07/31 11:46:03;;;;;;;;;;;21.00;99.90;;;;;;8391187;28;20287;-69
2022/07/31 11:50:04;;;;;;;;;;;21.00;99.90;;;;;;8391540;28;19924;-69
2022/07/31 11:54:06;;;;;;;;;;;21.00;99.90;;;;;;8390674;28;19952;-69
2022/07/31 12:03:18;;;;;;;;;;;21.10;99.90;;;;;;8388518;28;19982;-69
2022/07/31 12:17:27;;;;;;;;;;;21.20;99.90;;;;;;8390301;28;19923;-70
2022/07/31 12:21:32;;;;;;;;;;;21.30;99.90;;;;;;8391429;28;19924;-69
2022/07/31 12:25:41;;;;;;;;;;;21.30;99.90;;;;;;8420195;27;20539;-69
2022/07/31 12:29:43;;;;;;;;;;;21.40;99.90;;;;;;8391140;28;20268;-69
2022/07/31 12:33:44;;;;;;;;;;;21.40;99.90;;;;;;8389605;28;20380;-69
2022/07/31 12:37:47;;;;;;;;;;;21.50;99.90;;;;;;8388860;28;19932;-69
2022/07/31 12:41:49;;;;;;;;;;;21.50;99.90;;;;;;8387627;28;19952;-69
2022/07/31 12:45:50;;;;;;;;;;;21.60;99.90;;;;;;8388833;28;19924;-69
2022/07/31 12:49:52;;;;;;;;;;;21.70;99.90;;;;;;8388402;28;19944;-69
2022/07/31 12:53:54;;;;;;;;;;;21.80;99.90;;;;;;8388564;28;19924;-69
2022/07/31 12:57:56;;;;;;;;;;;21.80;99.90;;;;;;8389352;28;19924;-69
2022/07/31 13:12:04;;;;;;;;;;;21.70;99.90;;;;;;8387080;28;19938;-70
2022/07/31 13:16:05;;;;;;;;;;;21.80;99.90;;;;;;8389460;28;19928;-69
2022/07/31 13:20:07;;;;;;;;;;;21.90;99.90;;;;;;8388170;28;19928;-69
2022/07/31 13:24:09;;;;;;;;;;;21.90;99.90;;;;;;8401085;28;19932;-69
2022/07/31 13:28:11;;;;;;;;;;;21.90;99.90;;;;;;8385761;28;19924;-68
2022/07/31 13:32:13;;;;;;;;;;;21.90;99.90;;;;;;8387209;28;19924;-69
2022/07/31 13:36:14;;;;;;;;;;;22.00;99.90;;;;;;8386762;28;19924;-69
2022/07/31 13:40:17;;;;;;;;;;;22.00;99.90;;;;;;8386529;28;19970;-69
2022/07/31 13:44:19;;;;;;;;;;;22.10;99.90;;;;;;8385650;28;19929;-69
2022/07/31 13:48:21;;;;;;;;;;;22.10;99.90;;;;;;8387227;28;19924;-69
2022/07/31 13:52:22;;;;;;;;;;;22.10;99.90;;;;;;8384709;28;20308;-69
2022/07/31 13:56:24;;;;;;;;;;;22.10;99.90;;;;;;8387303;28;19932;-69
2022/07/31 14:00:40;;;;;;;;;;;22.10;99.90;;;;;;8384823;28;19947;-69
2022/07/31 14:04:41;;;;;;;;;;;22.10;99.90;;;;;;8384674;28;19931;-69
2022/07/31 14:08:43;;;;;;;;;;;22.20;99.90;;;;;;8386441;28;19925;-69
2022/07/31 14:12:52;;;;;;;;;;;22.20;99.90;;;;;;8385664;28;20027;-69
2022/07/31 14:16:53;;;;;;;;;;;22.30;99.90;;;;;;8387455;28;19932;-69
2022/07/31 14:20:55;;;;;;;;;;;22.30;99.90;;;;;;8384870;28;19932;-69
2022/07/31 14:24:57;;;;;;;;;;;22.20;99.90;;;;;;8386199;28;19924;-69
2022/07/31 14:28:58;;;;;;;;;;;22.00;99.90;;;;;;8384584;28;19944;-69
2022/07/31 14:33:03;;;;;;;;;;;21.60;99.90;;;;;;8385992;28;19938;-69
2022/07/31 14:37:05;;;;;;;;;;;21.40;99.90;;;;;;8385704;28;19928;-70
2022/07/31 14:41:07;;;;;;;;;;;21.30;99.90;;;;;;8418765;27;19928;-70
2022/07/31 14:45:10;;;;;;;;;;;21.30;99.90;;;;;;8385711;28;19935;-69
2022/07/31 15:04:25;;;;;;;;;;;21.60;99.90;;;;;;8390821;28;19962;-69
2022/07/31 15:08:27;;;;;;;;;;;21.60;99.90;;;;;;8394859;28;19943;-69
2022/07/31 15:12:28;;;;;;;;;;;21.50;99.90;;;;;;8393326;28;20325;-69
2022/07/31 15:16:30;;;;;;;;;;;21.50;99.90;;;;;;8392411;28;19924;-69
2022/07/31 15:20:32;;;;;;;;;;;21.40;99.90;;;;;;8391941;28;19940;-69
2022/07/31 15:24:34;;;;;;;;;;;21.40;99.90;;;;;;8391761;28;19928;-70
2022/07/31 15:28:36;;;;;;;;;;;21.30;99.90;;;;;;8391882;28;19931;-69
2022/07/31 15:32:38;;;;;;;;;;;21.10;99.90;;;;;;8393403;28;19924;-70
2022/07/31 15:36:39;;;;;;;;;;;20.90;99.90;;;;;;8390157;28;20008;-70
2022/07/31 15:40:41;;;;;;;;;;;20.80;99.90;;;;;;8390415;28;19925;-70
2022/07/31 15:44:43;;;;;;;;;;;20.80;99.90;;;;;;8390777;28;19924;-70
2022/07/31 15:48:44;;;;;;;;;;;20.70;99.90;;;;;;8394995;28;19936;-69
2022/07/31 15:57:50;;;;;;;;;;;20.50;99.90;;;;;;8391033;28;19927;-70
2022/07/31 16:01:51;;;;;;;;;;;20.50;99.90;;;;;;8389739;28;20462;-70
2022/07/31 16:05:53;;;;;;;;;;;20.50;99.90;;;;;;8388942;28;19924;-70
2022/07/31 16:09:56;;;;;;;;;;;20.60;99.90;;;;;;8419528;28;20411;-70
2022/07/31 16:14:01;;;;;;;;;;;20.60;99.90;;;;;;8389200;28;19961;-70
2022/07/31 16:18:03;;;;;;;;;;;20.60;99.90;;;;;;8392307;28;19954;-70
2022/07/31 16:22:04;;;;;;;;;;;20.60;99.90;;;;;;8421473;27;24186;-69
2022/07/31 16:26:06;;;;;;;;;;;20.60;99.90;;;;;;8392105;28;19928;-70
2022/07/31 16:30:08;;;;;;;;;;;20.60;99.90;;;;;;8388367;28;19931;-70
2022/07/31 16:34:10;;;;;;;;;;;20.70;99.90;;;;;;8391280;28;19928;-70
2022/07/31 16:38:11;;;;;;;;;;;20.70;99.90;;;;;;8389719;28;19932;-69
2022/07/31 16:42:16;;;;;;;;;;;20.80;99.90;;;;;;8388657;28;19928;-70
2022/07/31 16:46:18;;;;;;;;;;;20.80;99.90;;;;;;8387740;28;19925;-70
2022/07/31 16:50:19;;;;;;;;;;;20.90;99.90;;;;;;8388102;28;19931;-69
2022/07/31 16:54:21;;;;;;;;;;;20.90;99.90;;;;;;8388253;28;19931;-69
2022/07/31 16:58:23;;;;;;;;;;;20.90;99.90;;;;;;8387701;28;19947;-69
2022/07/31 17:02:25;;;;;;;;;;;20.90;99.90;;;;;;8390986;28;20655;-70
2022/07/31 17:06:28;;;;;;;;;;;20.90;99.90;;;;;;8387453;28;19929;-70
2022/07/31 17:10:36;;;;;;;;;;;20.90;99.90;;;;;;8385341;28;20356;-70
2022/07/31 17:14:38;;;;;;;;;;;21.00;99.90;;;;;;8387935;28;20359;-70
2022/07/31 17:18:40;;;;;;;;;;;21.00;99.90;;;;;;8387792;28;20247;-69
2022/07/31 17:22:41;;;;;;;;;;;21.00;99.90;;;;;;8386477;28;20291;-69
2022/07/31 17:26:44;;;;;;;;;;;21.00;99.90;;;;;;8385696;28;19940;-70
2022/07/31 17:30:45;;;;;;;;;;;21.00;99.90;;;;;;8386276;28;20391;-69
2022/07/31 17:34:48;;;;;;;;;;;21.00;99.90;;;;;;8386694;28;19928;-70
2022/07/31 17:38:50;;;;;;;;;;;21.00;99.90;;;;;;8387419;28;20338;-70
2022/07/31 17:42:51;;;;;;;;;;;21.00;99.90;;;;;;8386538;28;19931;-70
2022/07/31 17:46:53;;;;;;;;;;;21.00;99.90;;;;;;8420616;27;19951;-69
2022/07/31 17:50:54;;;;;;;;;;;21.00;99.90;;;;;;8387138;28;19932;-70
2022/07/31 17:54:56;;;;;;;;;;;21.00;99.90;;;;;;8386773;28;19928;-70
2022/07/31 17:59:04;;;;;;;;;;;21.00;99.90;;;;;;8386395;28;19928;-70
2022/07/31 18:03:05;;;;;;;;;;;21.00;99.90;;;;;;8400005;28;20324;-70
2022/07/31 18:07:08;;;;;;;;;;;20.90;99.90;;;;;;8386575;28;19928;-69
2022/07/31 18:16:13;;;;;;;;;;;20.80;99.90;;;;;;8385777;28;19919;-69
2022/07/31 18:20:18;;;;;;;;;;;20.80;99.90;;;;;;8384578;28;24379;-70
2022/07/31 18:24:20;;;;;;;;;;;20.80;99.90;;;;;;8383516;28;19928;-69
2022/07/31 18:28:21;;;;;;;;;;;20.80;99.90;;;;;;8385500;28;19929;-69
2022/07/31 18:32:23;;;;;;;;;;;20.80;99.90;;;;;;8385636;28;19936;-69
2022/07/31 18:36:25;;;;;;;;;;;20.80;99.90;;;;;;8417875;27;19925;-70
2022/07/31 18:40:27;;;;;;;;;;;20.80;99.90;;;;;;8385678;28;19928;-70
2022/07/31 18:44:29;;;;;;;;;;;20.70;99.90;;;;;;8386143;28;19925;-70
2022/07/31 18:48:31;;;;;;;;;;;20.70;99.90;;;;;;8387483;28;19935;-69
2022/07/31 18:52:32;;;;;;;;;;;20.70;99.90;;;;;;8385684;28;19936;-70
2022/07/31 18:56:34;;;;;;;;;;;20.70;99.90;;;;;;8383224;28;19928;-69
2022/07/31 19:00:36;;;;;;;;;;;20.70;99.90;;;;;;8384833;28;22040;-69
2022/07/31 19:04:37;;;;;;;;;;;20.70;99.90;;;;;;8384368;28;19974;-69
2022/07/31 19:08:39;;;;;;;;;;;20.70;99.90;;;;;;8386436;28;20699;-69
2022/07/31 19:12:41;;;;;;;;;;;20.70;99.90;;;;;;8386125;28;19939;-70
2022/07/31 19:16:42;;;;;;;;;;;20.70;99.90;;;;;;8385139;28;19936;-69
2022/07/31 19:20:44;;;;;;;;;;;20.60;99.90;;;;;;8384190;28;19939;-69
2022/07/31 19:25:01;;;;;;;;;;;20.60;99.90;;;;;;8385408;28;19925;-69
2022/07/31 19:29:03;;;;;;;;;;;20.60;99.90;;;;;;8386580;28;19928;-69
2022/07/31 19:33:04;;;;;;;;;;;20.60;99.90;;;;;;8419264;27;19924;-70
2022/07/31 19:37:06;;;;;;;;;;;20.60;99.90;;;;;;8389531;28;19924;-69
2022/07/31 19:41:09;;;;;;;;;;;20.50;99.90;;;;;;8389953;28;19924;-70
2022/07/31 19:45:11;;;;;;;;;;;20.60;99.90;;;;;;8390409;28;19924;-70
2022/07/31 19:49:12;;;;;;;;;;;20.50;99.90;;;;;;8390353;28;19928;-70
2022/07/31 19:53:14;;;;;;;;;;;20.60;99.90;;;;;;8388323;28;19947;-70
2022/07/31 19:57:16;;;;;;;;;;;20.60;99.90;;;;;;8390800;28;19939;-70
2022/07/31 20:01:21;;;;;;;;;;;20.60;99.90;;;;;;8388843;28;19928;-69
2022/07/31 20:05:23;;;;;;;;;;;20.60;99.90;;;;;;8392223;28;20272;-69
2022/07/31 20:09:24;;;;;;;;;;;20.60;99.90;;;;;;8390358;28;19936;-70
2022/07/31 20:13:28;;;;;;;;;;;20.60;99.90;;;;;;8421318;27;20313;-69
2022/07/31 20:17:30;;;;;;;;;;;20.60;99.90;;;;;;8421918;27;19924;-70
2022/07/31 20:21:32;;;;;;;;;;;20.60;99.90;;;;;;8389332;28;19925;-70
2022/07/31 20:25:37;;;;;;;;;;;20.60;99.90;;;;;;8390458;28;19981;-70
2022/07/31 20:29:39;;;;;;;;;;;20.60;99.90;;;;;;8388555;28;19928;-70
2022/07/31 20:33:40;;;;;;;;;;;20.60;99.90;;;;;;8389442;28;19932;-70
2022/07/31 20:37:45;;;;;;;;;;;20.60;99.90;;;;;;8390466;28;19989;-70
2022/07/31 20:41:47;;;;;;;;;;;20.60;99.90;;;;;;8390457;28;19951;-70
2022/07/31 20:45:49;;;;;;;;;;;20.60;99.90;;;;;;8421541;27;19931;-69
2022/07/31 20:49:50;;;;;;;;;;;20.60;99.90;;;;;;8387488;28;19935;-70
2022/07/31 20:53:53;;;;;;;;;;;20.60;99.90;;;;;;8387536;28;20004;-70
2022/07/31 20:57:54;;;;;;;;;;;20.60;99.90;;;;;;8387576;28;19925;-70
2022/07/31 21:01:56;;;;;;;;;;;20.60;99.90;;;;;;8395170;28;20050;-70
2022/07/31 21:05:57;;;;;;;;;;;20.60;99.90;;;;;;8436492;28;19924;-70
2022/07/31 21:09:59;;;;;;;;;;;20.60;99.90;;;;;;8427887;28;19938;-70
2022/07/31 21:14:01;;;;;;;;;;;20.60;99.90;;;;;;8428614;28;19932;-70
2022/07/31 21:18:04;;;;;;;;;;;20.60;99.90;;;;;;8428248;28;19931;-70
2022/07/31 21:22:06;;;;;;;;;;;20.60;99.90;;;;;;8422054;28;19931;-70
2022/07/31 21:26:08;;;;;;;;;;;20.60;99.90;;;;;;8423951;28;19931;-70
2022/07/31 21:30:09;;;;;;;;;;;20.60;99.90;;;;;;8428000;28;19924;-70
2022/07/31 21:34:11;;;;;;;;;;;20.60;99.90;;;;;;8426673;28;19928;-70
2022/07/31 21:38:14;;;;;;;;;;;20.50;99.90;;;;;;8413427;28;19924;-70
2022/07/31 21:42:16;;;;;;;;;;;20.50;99.90;;;;;;8426342;28;19924;-70
2022/07/31 21:46:21;;;;;;;;;;;20.50;99.90;;;;;;8429074;28;19935;-70
2022/07/31 21:50:24;;;;;;;;;;;20.50;99.90;;;;;;8425232;28;19928;-70
2022/07/31 21:54:29;;;;;;;;;;;20.50;99.90;;;;;;8423070;28;19924;-70
2022/07/31 21:58:31;;;;;;;;;;;20.50;99.90;;;;;;8428519;28;19935;-70
2022/07/31 22:02:33;;;;;;;;;;;20.50;99.90;;;;;;8427231;28;19925;-70
2022/07/31 22:10:55;;;;;;;;;;;20.50;99.90;;;;;;8423853;28;19931;-70
2022/07/31 22:14:56;;;;;;;;;;;20.40;99.90;;;;;;8427766;28;19931;-70
2022/07/31 22:18:58;;;;;;;;;;;20.40;99.90;;;;;;8425876;28;19924;-70
2022/07/31 22:23:00;;;;;;;;;;;20.40;99.90;;;;;;8427257;28;19924;-70
2022/07/31 22:31:23;;;;;;;;;;;20.30;99.90;;;;;;8420337;28;19947;-70
2022/07/31 22:35:26;;;;;;;;;;;20.30;99.90;;;;;;8423519;28;19928;-70
2022/07/31 22:39:27;;;;;;;;;;;20.30;99.90;;;;;;8416822;28;19924;-70
2022/07/31 22:43:29;;;;;;;;;;;20.20;99.90;;;;;;8419803;28;19924;-70
2022/07/31 22:47:52;;;;;;;;;;;20.20;99.90;;;;;;8430662;28;20078;-70
2022/07/31 22:51:53;;;;;;;;;;;20.20;99.90;;;;;;8427435;28;19928;-70
2022/07/31 22:55:55;;;;;;;;;;;20.20;99.90;;;;;;8427541;28;19928;-70
2022/07/31 22:59:57;;;;;;;;;;;20.30;99.90;;;;;;8426573;28;19935;-70
2022/07/31 23:03:58;;;;;;;;;;;20.20;99.90;;;;;;8425815;28;20368;-70
2022/07/31 23:08:00;;;;;;;;;;;20.30;99.90;;;;;;8426777;28;19931;-70
2022/07/31 23:12:02;;;;;;;;;;;20.20;99.90;;;;;;8432796;28;19925;-70
2022/07/31 23:16:04;;;;;;;;;;;20.20;99.90;;;;;;8433833;28;20260;-70
2022/07/31 23:20:06;;;;;;;;;;;20.20;99.90;;;;;;8431351;28;19928;-70
2022/07/31 23:24:08;;;;;;;;;;;20.20;99.90;;;;;;8433066;28;19923;-70
2022/07/31 23:28:09;;;;;;;;;;;20.20;99.90;;;;;;8431374;28;19924;-70
2022/07/31 23:32:11;;;;;;;;;;;20.20;99.90;;;;;;8430430;28;19924;-70
2022/07/31 23:36:13;;;;;;;;;;;20.20;99.90;;;;;;8423339;28;20315;-70
2022/07/31 23:40:15;;;;;;;;;;;20.20;99.90;;;;;;8420948;28;20294;-70
2022/07/31 23:44:16;;;;;;;;;;;20.10;99.90;;;;;;8432321;28;20291;-70
2022/07/31 23:48:22;;;;;;;;;;;20.10;99.90;;;;;;8432394;28;20319;-70
2022/07/31 23:52:23;;;;;;;;;;;20.10;99.90;;;;;;8430704;28;19935;-70
2022/07/31 23:56:25;;;;;;;;;;;20.10;99.90;;;;;;8432584;28;20851;-70
